• Join FlightAware (Why Join?)
  • Login
  • US Flag 
06:02AM EDT


 

Airport Tracker/Info


-or-


 

Live Flight TrackerFlight Track Log ✈ RPA3457 ✈ 27-May-2013 ✈ KBTV - KDCA

Flight Track Log - Related Links

Times and Time Zones

All times are in EDT time to prevent confusion due to time zone crossing. See the RPA3457 flight status page for this flight to view local times or setup timezone preferences in your user account.

Time Position Orientation Groundspeed Altitude Reporting Facility
EDT Latitude Longitude Course Direction KTS MPH feet Rate Location/Type
07:52AM 44.4406 -73.1350 195° South 168 193 2,200  Level Boston Center
07:53AM 44.3800 -73.1517 191° South 200 230 4,400 2,940 Climbing Boston Center
07:54AM 44.1768 -73.2587 195° South  Level FlightAware Approximate
07:54AM 44.3047 -73.1828 196° South 264 304 8,100  Level Boston Center
07:55AM 44.0796 -73.2952 195° South  Level FlightAware Approximate
07:55AM 44.2192 -73.1961 186° South 297 342 10,800  Level Boston Center
07:56AM 43.9818 -73.3283 194° South  Level FlightAware Approximate
07:56AM 44.1192 -73.2092 185° South 344 396 13,400  Level Boston Center
07:57AM 43.8842 -73.3622 195° South  Level FlightAware Approximate
07:57AM 44.0128 -73.2253 186° South 373 429 16,200  Level Boston Center
07:58AM 43.9064 -73.2356 184° South 390 449 18,700 2,460 Climbing Boston Center
07:59AM 43.7919 -73.2167 173° South 401 461 21,200 2,280 Climbing Boston Center
08:00AM 43.6756 -73.1922 171° South 417 480 23,300 2,100 Climbing Boston Center
08:01AM 43.5525 -73.1819 177° South 435 501 25,500 2,040 Climbing Boston Center
08:02AM 43.4317 -73.2033 187° South 435 501 27,400 1,200 Climbing Boston Center
08:03AM 43.3208 -73.2250 188° South 447 514 28,000 300 Climbing Boston Center
08:04AM 43.1894 -73.2489 188° South 466 536 28,000  Level Boston Center
08:05AM 43.0581 -73.2728 188° South 480 552 28,000  Level Boston Center
08:06AM 42.9267 -73.2964 187° South 480 552 28,000  Level Boston Center
08:07AM 42.7950 -73.3228 188° South 485 558 28,000  Level Boston Center
08:08AM 42.6678 -73.3492 189° South 485 558 28,000  Level Boston Center
08:09AM 42.5464 -73.4150 202° Southwest 471 542 28,000  Level Boston Center
08:10AM 42.4289 -73.4864 204° Southwest 465 535 28,000  Level Boston Center
08:11AM 42.3011 -73.5517 201° Southwest 457 526 28,000  Level Boston Center
08:12AM 42.1881 -73.6169 203° Southwest 451 519 28,000  Level Boston Center
08:13AM 42.0706 -73.6847 203° Southwest 451 519 28,000  Level Boston Center
08:14AM 41.9508 -73.7575 204° Southwest 460 529 28,000  Level Boston Center
08:15AM 41.8356 -73.8222 203° Southwest 465 535 28,000  Level Boston Center
08:16AM 41.7222 -73.8864 203° Southwest 460 529 28,000  Level Boston Center
08:18AM 41.4897 -74.0142 202° Southwest 452 520 28,000  Level New York Center
08:19AM 41.3714 -74.0831 204° Southwest 458 527 28,000  Level New York Center
08:20AM 41.2508 -74.1489 202° Southwest 463 533 28,000  Level New York Center
08:21AM 41.1175 -74.2164 201° Southwest 463 533 28,000  Level New York Center
08:22AM 41.0072 -74.2822 204° Southwest 451 519 28,000  Level New York Center
08:23AM 40.8950 -74.3425 202° Southwest 446 513 28,000  Level New York Center
08:24AM 40.7867 -74.4108 206° Southwest 446 513 28,000  Level New York Center
08:25AM 40.7167 -74.5247 231° Southwest 418 481 28,000 -60 Level New York Center
08:26AM 40.6483 -74.6358 231° Southwest 401 461 27,900 -780 Descending New York Center
08:27AM 40.5800 -74.7494 232° Southwest 406 467 26,500 -1,380 Descending New York Center
08:28AM 40.5056 -74.8544 227° Southwest 400 460 25,100 -1,920 Descending New York Center
08:29AM 40.4356 -74.9511 226° Southwest 390 449 22,700 -2,520 Descending New York Center
08:30AM 40.3675 -75.0450 226° Southwest 379 436 20,100 -1,380 Descending New York Center
08:31AM 40.3014 -75.1389 227° Southwest 366 421 20,000 -60 Descending New York Center
08:32AM 40.2333 -75.2353 227° Southwest 360 414 20,000  Level New York Center
08:33AM 40.1692 -75.3289 228° Southwest 360 414 20,000  Level New York Center
08:34AM 40.1011 -75.4222 226° Southwest 360 414 20,000  Level New York Center
08:35AM 40.0325 -75.5178 227° Southwest 360 414 20,000  Level New York Center
08:36AM 39.9661 -75.6136 228° Southwest 360 414 20,000  Level New York Center
08:37AM 39.9058 -75.7122 231° Southwest 360 414 20,000  Level New York Center
08:38AM 39.8411 -75.8131 230° Southwest 360 414 20,000  Level New York Center
08:39AM 39.7783 -75.9139 231° Southwest 360 414 20,000 -720 Level New York Center
08:41AM 39.6500 -76.1167 231° Southwest 342 394 17,800 -1,380 Descending Potomac TRACON
08:42AM 39.5833 -76.2000 224° Southwest 336 387 15,900 -1,920 Descending Potomac TRACON
08:43AM 39.5333 -76.3000 237° Southwest 326 375 14,200 -1,740 Descending Potomac TRACON
08:44AM 39.4667 -76.3833 224° Southwest 319 367 12,300 -1,680 Descending Potomac TRACON
08:45AM 39.4000 -76.4500 218° Southwest 321 369 10,900 -1,260 Descending Potomac TRACON
08:46AM 39.3333 -76.5167 218° Southwest 305 351 10,000 -480 Descending Potomac TRACON
08:47AM 39.2667 -76.5833 218° Southwest 287 330 10,000  Level Potomac TRACON
08:48AM 39.2167 -76.6333 218° Southwest 288 331 10,000  Level Potomac TRACON
08:49AM 39.1500 -76.6833 210° Southwest 287 330 10,000 -60 Level Potomac TRACON
08:50AM 39.0833 -76.7667 224° Southwest 284 327 9,900 -1,080 Descending Potomac TRACON
08:51AM 39.0333 -76.8333 226° Southwest 277 319 7,900 -1,860 Descending Potomac TRACON
08:52AM 38.9667 -76.9000 218° Southwest 269 310 6,200 -1,020 Descending Potomac TRACON
08:53AM 38.9167 -76.9333 207° Southwest 235 270 6,000 -120 Descending Potomac TRACON
08:54AM 38.8667 -76.9500 195° South 236 272 6,000 -180 Level Potomac TRACON
08:55AM 38.8000 -76.9500 180° South 231 266 5,700 -600 Descending Potomac TRACON
08:56AM 38.7333 -76.9333 169° South 215 247 4,900 -720 Descending Potomac TRACON
08:57AM 38.7000 -76.9333 180° South 172 198 4,500 -480 Descending Potomac TRACON
08:58AM 38.6500 -76.9333 180° South 178 205 4,000 -660 Descending Potomac TRACON
08:59AM 38.6167 -76.9500 201° Southwest 179 206 3,300 -780 Descending Potomac TRACON
09:00AM 38.6167 -77.0167 270° West 185 213 2,500 -420 Descending Potomac TRACON
09:01AM 38.6667 -77.0333 345° North 169 194 2,500  Level Potomac TRACON
09:02AM 38.7167 -77.0333 360° North 168 193 2,500  Level Potomac TRACON